Terminal Aerodrome Forecast
Issued by NWS Wichita, KS

Home | Current Version | Previous Version | Text Only | Print | Product List | Glossary Off
Versions: 1 2 3 4 5 6 7 8 9 10 11 12 13 14 15 16 17 18 19 20 21 22

000
FTUS43 KICT 131722
TAFICT
TAF
KICT 131722Z 1318/1418 04007KT P6SM OVC018
     FM140600 02006KT P6SM -FZRA OVC012
     FM141500 02005KT 5SM -FZRA BR OVC010
     FM141700 01005KT 3SM -FZRA OVC010=

USA.gov is the U.S. government's official web portal to all federal, state and local government web resources and services.